Glen Head, NY (11545)

12:39 AM EST on December 03, 2016 (GMT -0500)
Muttontown, NY | | Change Station

Elev 154 ft 40.83 °N, 73.56 °W | Updated 4 minutes ago

Overcast
Overcast
43.7 °F
Feels Like 42 °F
N
4.0
Wind Variable Wind from WSW
Gusts 8.0 mph

Today
High -- | Low -- °F
--% Chance of Precip.
Yesterday
High -- | Low -- °F
Precip. -- in
Pressure 29.90 in
Visibility 10.0 miles
Clouds Overcast 4800 ft
Windchill 42 °F
Dew Point 34 °F
Humidity 69%
Rainfall 0.00 in
Snow Depth Not available.
7:01 AM 4:26 PM
Waxing Crescent, 12% visible
METAR KFRG 030453Z AUTO 29010G19KT 10SM OVC048 07/M02 A2990 RMK AO2 SLP124 T00721017 401110033
Pressure 29.90 in
Visibility 10.0 miles
Clouds Overcast 4800 ft
Windchill 42 °F
Dew Point 34 °F
Humidity 69%
Rainfall 0.00 in
Snow Depth Not available.
7:01 AM 4:26 PM
Waxing Crescent, 12% visible
METAR KFRG 030453Z AUTO 29010G19KT 10SM OVC048 07/M02 A2990 RMK AO2 SLP124 T00721017 401110033

10-Day Weather Forecast

Almanac

Astronomy

Dec. 03, 2016 Rise Set
Actual Time
Civil Twilight
Nautical Twilight
Astronomical Twilight
Moon
Length of Visible Light
Length of Day
Tomorrow will be .
, % of the Moon is Illuminated

Today's Extremes

State Highs State Lows

Community

WunderPhotos

Upload Photos

1,955,413 photos uploaded!

WunderBlog® & News

Nearby

Air Quality

  Air Quality AQ Index Pollutant
Not available.

Snow Depth

Station Depth Elevation

Earthquake Activity

City Distance Mag. Time & Date
Minimum magnitude displayed is 2.5.

Coastal Water Temperatures

Place Temperature

Stations

Nearby Weather Stations

Station Location Temp. Windchill Dew Point Humidity Wind Precip. Elev Updated Type
                   

Watches & Warnings

There are currently no watches in effect.